sensor_id;sensor_type;location;lat;lon;timestamp;pressure;altitude;pressure_sealevel;temperature;humidity
7990;BME280;4040;42.848;23.034;2022-07-04T00:03:37;95208.59;;;18.27;100.00
7990;BME280;4040;42.848;23.034;2022-07-04T00:13:49;95211.59;;;18.20;100.00
7990;BME280;4040;42.848;23.034;2022-07-04T00:19:38;95202.75;;;18.28;100.00
7990;BME280;4040;42.848;23.034;2022-07-04T00:25:27;95180.63;;;18.14;100.00
7990;BME280;4040;42.848;23.034;2022-07-04T00:31:17;95189.91;;;18.16;100.00
7990;BME280;4040;42.848;23.034;2022-07-04T00:37:06;95202.44;;;18.14;100.00
7990;BME280;4040;42.848;23.034;2022-07-04T00:43:00;95202.81;;;17.79;100.00
7990;BME280;4040;42.848;23.034;2022-07-04T00:48:50;95200.66;;;17.61;100.00
7990;BME280;4040;42.848;23.034;2022-07-04T00:54:39;95192.94;;;17.47;100.00
7990;BME280;4040;42.848;23.034;2022-07-04T01:00:28;95197.50;;;17.50;100.00
7990;BME280;4040;42.848;23.034;2022-07-04T01:06:19;95196.84;;;17.71;100.00
7990;BME280;4040;42.848;23.034;2022-07-04T01:16:29;95204.06;;;17.24;100.00
7990;BME280;4040;42.848;23.034;2022-07-04T01:22:20;95196.22;;;17.14;100.00
7990;BME280;4040;42.848;23.034;2022-07-04T01:28:09;95199.47;;;17.09;100.00
7990;BME280;4040;42.848;23.034;2022-07-04T01:33:58;95201.78;;;17.10;100.00
7990;BME280;4040;42.848;23.034;2022-07-04T01:39:48;95197.84;;;17.11;100.00
7990;BME280;4040;42.848;23.034;2022-07-04T01:45:37;95202.22;;;17.21;100.00
7990;BME280;4040;42.848;23.034;2022-07-04T01:51:25;95197.91;;;17.36;100.00
7990;BME280;4040;42.848;23.034;2022-07-04T01:57:16;95195.72;;;17.31;100.00
7990;BME280;4040;42.848;23.034;2022-07-04T02:03:04;95199.81;;;17.23;100.00
7990;BME280;4040;42.848;23.034;2022-07-04T02:08:53;95191.78;;;17.32;100.00
7990;BME280;4040;42.848;23.034;2022-07-04T02:19:23;95209.22;;;16.81;100.00
7990;BME280;4040;42.848;23.034;2022-07-04T02:25:11;95212.50;;;16.60;100.00
7990;BME280;4040;42.848;23.034;2022-07-04T02:31:00;95211.66;;;16.63;100.00
7990;BME280;4040;42.848;23.034;2022-07-04T02:36:50;95215.38;;;16.69;100.00
7990;BME280;4040;42.848;23.034;2022-07-04T02:42:39;95214.72;;;16.65;100.00
7990;BME280;4040;42.848;23.034;2022-07-04T02:48:28;95217.09;;;16.63;100.00
7990;BME280;4040;42.848;23.034;2022-07-04T02:54:18;95229.50;;;16.64;100.00
7990;BME280;4040;42.848;23.034;2022-07-04T03:00:08;95220.72;;;16.73;100.00
7990;BME280;4040;42.848;23.034;2022-07-04T03:05:57;95177.41;;;16.37;100.00
7990;BME280;4040;42.848;23.034;2022-07-04T03:11:47;95228.25;;;16.81;100.00
7990;BME280;4040;42.848;23.034;2022-07-04T03:21:57;95236.94;;;16.76;100.00
7990;BME280;4040;42.848;23.034;2022-07-04T03:27:48;95233.75;;;16.94;100.00
7990;BME280;4040;42.848;23.034;2022-07-04T03:33:37;95204.78;;;16.87;100.00
7990;BME280;4040;42.848;23.034;2022-07-04T03:39:27;95218.19;;;17.07;100.00
7990;BME280;4040;42.848;23.034;2022-07-04T03:45:18;95221.03;;;17.03;100.00
7990;BME280;4040;42.848;23.034;2022-07-04T03:51:06;95220.41;;;17.24;100.00
7990;BME280;4040;42.848;23.034;2022-07-04T03:56:55;95219.84;;;17.17;100.00
7990;BME280;4040;42.848;23.034;2022-07-04T04:02:46;95228.44;;;17.15;100.00
7990;BME280;4040;42.848;23.034;2022-07-04T04:08:34;95192.59;;;17.04;100.00
7990;BME280;4040;42.848;23.034;2022-07-04T04:14:23;95225.38;;;17.54;100.00
7990;BME280;4040;42.848;23.034;2022-07-04T04:24:36;95220.38;;;17.78;100.00
7990;BME280;4040;42.848;23.034;2022-07-04T04:30:24;95219.00;;;18.32;100.00
7990;BME280;4040;42.848;23.034;2022-07-04T04:36:14;95212.47;;;19.28;100.00
7990;BME280;4040;42.848;23.034;2022-07-04T04:42:04;95221.69;;;20.49;100.00
7990;BME280;4040;42.848;23.034;2022-07-04T04:47:53;95203.88;;;21.25;100.00
7990;BME280;4040;42.848;23.034;2022-07-04T04:53:42;95205.91;;;21.75;100.00
7990;BME280;4040;42.848;23.034;2022-07-04T04:59:32;95207.63;;;22.28;100.00
7990;BME280;4040;42.848;23.034;2022-07-04T05:05:21;95200.53;;;22.83;100.00
7990;BME280;4040;42.848;23.034;2022-07-04T05:11:10;95196.66;;;24.40;100.00
7990;BME280;4040;42.848;23.034;2022-07-04T05:17:00;95194.38;;;25.75;100.00
7990;BME280;4040;42.848;23.034;2022-07-04T05:27:11;95158.34;;;26.78;70.99
7990;BME280;4040;42.848;23.034;2022-07-04T05:33:01;95188.97;;;28.21;67.41
7990;BME280;4040;42.848;23.034;2022-07-04T05:38:50;95183.78;;;26.93;62.09
7990;BME280;4040;42.848;23.034;2022-07-04T05:44:38;95170.06;;;27.26;58.94
7990;BME280;4040;42.848;23.034;2022-07-04T05:50:28;95183.69;;;27.74;59.43
7990;BME280;4040;42.848;23.034;2022-07-04T05:56:17;95187.97;;;28.13;52.93
7990;BME280;4040;42.848;23.034;2022-07-04T06:02:07;95185.50;;;28.83;49.40
7990;BME280;4040;42.848;23.034;2022-07-04T06:07:57;95181.69;;;30.61;50.12
7990;BME280;4040;42.848;23.034;2022-07-04T06:13:45;95179.00;;;31.72;48.86
7990;BME280;4040;42.848;23.034;2022-07-04T06:19:34;95177.03;;;32.55;47.67
7990;BME280;4040;42.848;23.034;2022-07-04T06:29:46;95179.81;;;32.30;44.93
7990;BME280;4040;42.848;23.034;2022-07-04T06:35:35;95154.13;;;32.18;46.54
7990;BME280;4040;42.848;23.034;2022-07-04T06:41:41;95161.09;;;32.12;41.18
7990;BME280;4040;42.848;23.034;2022-07-04T06:47:31;95168.78;;;31.43;42.36
7990;BME280;4040;42.848;23.034;2022-07-04T06:53:20;95168.25;;;32.38;42.46
7990;BME280;4040;42.848;23.034;2022-07-04T06:59:09;95158.53;;;33.17;40.50
7990;BME280;4040;42.848;23.034;2022-07-04T07:04:59;95160.94;;;32.35;40.38
7990;BME280;4040;42.848;23.034;2022-07-04T07:10:48;95132.34;;;32.04;42.10
7990;BME280;4040;42.848;23.034;2022-07-04T07:16:37;95143.47;;;32.48;41.37
7990;BME280;4040;42.848;23.034;2022-07-04T07:22:27;95149.53;;;32.08;41.04
7990;BME280;4040;42.848;23.034;2022-07-04T07:32:37;95139.59;;;34.31;38.00
7990;BME280;4040;42.848;23.034;2022-07-04T07:38:28;95141.63;;;33.49;38.09
7990;BME280;4040;42.848;23.034;2022-07-04T07:44:16;95135.91;;;33.54;38.55
7990;BME280;4040;42.848;23.034;2022-07-04T07:50:06;95126.25;;;33.22;40.68
7990;BME280;4040;42.848;23.034;2022-07-04T07:55:57;95121.16;;;34.15;36.87
7990;BME280;4040;42.848;23.034;2022-07-04T08:01:46;95128.44;;;33.36;40.62
7990;BME280;4040;42.848;23.034;2022-07-04T08:07:35;95124.69;;;33.88;37.40
7990;BME280;4040;42.848;23.034;2022-07-04T08:13:25;95115.44;;;35.70;36.01
7990;BME280;4040;42.848;23.034;2022-07-04T08:19:14;95111.84;;;34.69;37.91
7990;BME280;4040;42.848;23.034;2022-07-04T08:25:03;95106.38;;;35.41;36.41
7990;BME280;4040;42.848;23.034;2022-07-04T08:35:15;95102.44;;;36.94;39.17
7990;BME280;4040;42.848;23.034;2022-07-04T08:41:04;95088.56;;;37.04;34.96
7990;BME280;4040;42.848;23.034;2022-07-04T08:46:54;95094.91;;;37.76;38.75
7990;BME280;4040;42.848;23.034;2022-07-04T08:52:58;95097.00;;;37.36;34.60
7990;BME280;4040;42.848;23.034;2022-07-04T08:58:48;95096.88;;;38.15;36.92
7990;BME280;4040;42.848;23.034;2022-07-04T09:04:38;95100.50;;;37.12;37.47
7990;BME280;4040;42.848;23.034;2022-07-04T09:10:29;95087.91;;;36.66;35.62
7990;BME280;4040;42.848;23.034;2022-07-04T09:16:17;95091.34;;;36.27;37.50
7990;BME280;4040;42.848;23.034;2022-07-04T09:22:09;95087.19;;;34.95;40.97
7990;BME280;4040;42.848;23.034;2022-07-04T09:28:00;95073.75;;;36.96;38.03
7990;BME280;4040;42.848;23.034;2022-07-04T09:38:21;95057.16;;;35.76;39.96
7990;BME280;4040;42.848;23.034;2022-07-04T09:44:11;95060.88;;;35.78;37.86
7990;BME280;4040;42.848;23.034;2022-07-04T09:50:00;95064.06;;;36.05;38.44
7990;BME280;4040;42.848;23.034;2022-07-04T09:55:50;95059.88;;;34.45;38.06
7990;BME280;4040;42.848;23.034;2022-07-04T10:01:40;95036.91;;;34.39;40.14
7990;BME280;4040;42.848;23.034;2022-07-04T10:07:30;95072.81;;;33.38;40.49
7990;BME280;4040;42.848;23.034;2022-07-04T10:13:20;95074.78;;;33.17;41.46
7990;BME280;4040;42.848;23.034;2022-07-04T10:19:11;95060.56;;;32.61;43.48
7990;BME280;4040;42.848;23.034;2022-07-04T10:25:00;95058.59;;;32.69;44.12
7990;BME280;4040;42.848;23.034;2022-07-04T10:30:51;95051.22;;;33.05;44.00
7990;BME280;4040;42.848;23.034;2022-07-04T10:41:05;95043.88;;;33.15;44.23
7990;BME280;4040;42.848;23.034;2022-07-04T10:46:54;95045.38;;;32.83;44.43
7990;BME280;4040;42.848;23.034;2022-07-04T10:53:11;95035.75;;;32.71;44.01
7990;BME280;4040;42.848;23.034;2022-07-04T10:59:07;95027.19;;;32.56;46.41
7990;BME280;4040;42.848;23.034;2022-07-04T11:05:13;95050.63;;;32.27;45.14
7990;BME280;4040;42.848;23.034;2022-07-04T11:11:04;95057.31;;;31.80;48.53
7990;BME280;4040;42.848;23.034;2022-07-04T11:16:57;95054.41;;;31.41;53.87
7990;BME280;4040;42.848;23.034;2022-07-04T11:22:46;95031.47;;;29.81;64.45
7990;BME280;4040;42.848;23.034;2022-07-04T11:28:35;95029.59;;;29.07;83.85
7990;BME280;4040;42.848;23.034;2022-07-04T11:34:30;95007.69;;;29.03;79.27
7990;BME280;4040;42.848;23.034;2022-07-04T11:40:20;95026.09;;;28.60;95.82
7990;BME280;4040;42.848;23.034;2022-07-04T11:43:04;95002.78;;;28.85;100.00
7990;BME280;4040;42.848;23.034;2022-07-04T11:49:11;95001.06;;;29.41;100.00
7990;BME280;4040;42.848;23.034;2022-07-04T11:55:01;94981.59;;;28.82;100.00
7990;BME280;4040;42.848;23.034;2022-07-04T12:00:50;95002.56;;;28.78;100.00
7990;BME280;4040;42.848;23.034;2022-07-04T12:06:39;94994.75;;;28.76;100.00
7990;BME280;4040;42.848;23.034;2022-07-04T12:12:29;95004.34;;;28.75;100.00
7990;BME280;4040;42.848;23.034;2022-07-04T12:18:19;95000.31;;;28.76;100.00
7990;BME280;4040;42.848;23.034;2022-07-04T12:24:08;94994.63;;;28.98;100.00
7990;BME280;4040;42.848;23.034;2022-07-04T12:29:59;94977.91;;;28.74;100.00
7990;BME280;4040;42.848;23.034;2022-07-04T12:35:49;94984.28;;;28.58;100.00
7990;BME280;4040;42.848;23.034;2022-07-04T12:41:38;94978.00;;;28.58;100.00
7990;BME280;4040;42.848;23.034;2022-07-04T12:47:28;94956.22;;;29.08;100.00
7990;BME280;4040;42.848;23.034;2022-07-04T12:53:17;94978.34;;;29.13;97.00
7990;BME280;4040;42.848;23.034;2022-07-04T12:59:07;94968.94;;;29.51;96.09
7990;BME280;4040;42.848;23.034;2022-07-04T13:04:57;94962.22;;;29.89;86.41
7990;BME280;4040;42.848;23.034;2022-07-04T13:10:47;94958.19;;;29.66;72.67
7990;BME280;4040;42.848;23.034;2022-07-04T13:16:36;94952.03;;;29.73;70.17
7990;BME280;4040;42.848;23.034;2022-07-04T13:22:26;94928.72;;;29.81;80.00
7990;BME280;4040;42.848;23.034;2022-07-04T13:28:15;94939.50;;;30.09;73.95
7990;BME280;4040;42.848;23.034;2022-07-04T13:34:04;94930.94;;;30.07;72.13
7990;BME280;4040;42.848;23.034;2022-07-04T13:36:31;94925.38;;;30.07;71.82
7990;BME280;4040;42.848;23.034;2022-07-04T13:42:22;94916.91;;;30.18;70.18
7990;BME280;4040;42.848;23.034;2022-07-04T13:48:28;94912.38;;;29.96;68.64
7990;BME280;4040;42.848;23.034;2022-07-04T13:54:16;94903.75;;;30.00;66.10
7990;BME280;4040;42.848;23.034;2022-07-04T14:00:10;94900.00;;;30.16;63.85
7990;BME280;4040;42.848;23.034;2022-07-04T14:06:00;94905.13;;;30.12;65.75
7990;BME280;4040;42.848;23.034;2022-07-04T14:11:49;94890.84;;;30.39;65.90
7990;BME280;4040;42.848;23.034;2022-07-04T14:17:39;94869.75;;;30.31;66.33
7990;BME280;4040;42.848;23.034;2022-07-04T14:23:28;94877.03;;;30.34;63.01
7990;BME280;4040;42.848;23.034;2022-07-04T14:29:28;94878.47;;;30.53;63.59
7990;BME280;4040;42.848;23.034;2022-07-04T14:35:19;94865.94;;;30.47;63.59
7990;BME280;4040;42.848;23.034;2022-07-04T14:41:07;94839.31;;;30.38;62.07
7990;BME280;4040;42.848;23.034;2022-07-04T14:46:59;94867.06;;;30.57;62.39
7990;BME280;4040;42.848;23.034;2022-07-04T14:52:49;94875.78;;;30.66;64.10
7990;BME280;4040;42.848;23.034;2022-07-04T14:58:38;94875.91;;;30.74;62.34
7990;BME280;4040;42.848;23.034;2022-07-04T15:04:27;94864.44;;;30.64;62.79
7990;BME280;4040;42.848;23.034;2022-07-04T15:10:17;94855.34;;;30.64;58.50
7990;BME280;4040;42.848;23.034;2022-07-04T15:16:06;94847.81;;;30.59;58.94
7990;BME280;4040;42.848;23.034;2022-07-04T15:21:55;94844.81;;;30.57;56.17
7990;BME280;4040;42.848;23.034;2022-07-04T15:28:03;94849.34;;;30.60;56.92
7990;BME280;4040;42.848;23.034;2022-07-04T15:33:52;94853.47;;;30.72;57.71
7990;BME280;4040;42.848;23.034;2022-07-04T15:44:04;94836.19;;;30.60;58.75
7990;BME280;4040;42.848;23.034;2022-07-04T15:49:53;94843.31;;;30.56;57.99
7990;BME280;4040;42.848;23.034;2022-07-04T15:55:42;94831.09;;;30.46;59.49
7990;BME280;4040;42.848;23.034;2022-07-04T16:01:32;94823.34;;;30.57;59.06
7990;BME280;4040;42.848;23.034;2022-07-04T16:07:21;94836.88;;;30.48;58.57
7990;BME280;4040;42.848;23.034;2022-07-04T16:13:10;94836.88;;;30.48;58.42
7990;BME280;4040;42.848;23.034;2022-07-04T16:19:01;94845.28;;;30.61;57.08
7990;BME280;4040;42.848;23.034;2022-07-04T16:24:51;94834.56;;;30.52;57.52
7990;BME280;4040;42.848;23.034;2022-07-04T16:30:40;94837.94;;;30.45;59.82
7990;BME280;4040;42.848;23.034;2022-07-04T16:36:31;94840.91;;;30.34;58.36
7990;BME280;4040;42.848;23.034;2022-07-04T16:46:41;94863.94;;;30.29;60.24
7990;BME280;4040;42.848;23.034;2022-07-04T16:52:32;94866.06;;;30.23;61.28
7990;BME280;4040;42.848;23.034;2022-07-04T16:58:20;94863.91;;;30.16;61.88
7990;BME280;4040;42.848;23.034;2022-07-04T17:04:09;94872.59;;;30.07;61.03
7990;BME280;4040;42.848;23.034;2022-07-04T17:09:59;94875.28;;;29.94;62.26
7990;BME280;4040;42.848;23.034;2022-07-04T17:15:48;94869.53;;;29.73;62.74
7990;BME280;4040;42.848;23.034;2022-07-04T17:21:36;94877.50;;;29.58;62.80
7990;BME280;4040;42.848;23.034;2022-07-04T17:27:27;94867.91;;;29.35;64.60
7990;BME280;4040;42.848;23.034;2022-07-04T17:33:16;94867.28;;;29.24;67.34
7990;BME280;4040;42.848;23.034;2022-07-04T17:39:05;94865.06;;;28.93;67.44
7990;BME280;4040;42.848;23.034;2022-07-04T17:49:17;94859.34;;;28.56;67.02
7990;BME280;4040;42.848;23.034;2022-07-04T17:55:06;94861.03;;;28.35;65.05
7990;BME280;4040;42.848;23.034;2022-07-04T18:00:55;94865.28;;;28.01;65.71
7990;BME280;4040;42.848;23.034;2022-07-04T18:06:45;94883.44;;;27.91;64.60
7990;BME280;4040;42.848;23.034;2022-07-04T18:12:34;94878.19;;;27.88;64.92
7990;BME280;4040;42.848;23.034;2022-07-04T18:18:23;94898.66;;;27.57;67.45
7990;BME280;4040;42.848;23.034;2022-07-04T18:24:13;94875.66;;;27.27;67.42
7990;BME280;4040;42.848;23.034;2022-07-04T18:30:02;94902.56;;;27.10;69.23
7990;BME280;4040;42.848;23.034;2022-07-04T18:35:51;94893.78;;;26.73;72.28
7990;BME280;4040;42.848;23.034;2022-07-04T18:41:41;94919.91;;;26.72;73.83
7990;BME280;4040;42.848;23.034;2022-07-04T18:52:10;94932.44;;;26.46;79.92
7990;BME280;4040;42.848;23.034;2022-07-04T18:58:01;94943.41;;;26.08;100.00
7990;BME280;4040;42.848;23.034;2022-07-04T19:03:49;94943.00;;;25.62;100.00
7990;BME280;4040;42.848;23.034;2022-07-04T19:09:38;94944.34;;;24.99;100.00
7990;BME280;4040;42.848;23.034;2022-07-04T19:15:29;94947.66;;;24.72;100.00
7990;BME280;4040;42.848;23.034;2022-07-04T19:21:19;94953.28;;;24.32;100.00
7990;BME280;4040;42.848;23.034;2022-07-04T19:27:08;94961.03;;;24.08;100.00
7990;BME280;4040;42.848;23.034;2022-07-04T19:32:58;94964.69;;;23.79;100.00
7990;BME280;4040;42.848;23.034;2022-07-04T19:38:47;94972.06;;;22.99;100.00
7990;BME280;4040;42.848;23.034;2022-07-04T19:44:36;94982.81;;;22.68;100.00
7990;BME280;4040;42.848;23.034;2022-07-04T19:54:48;94979.19;;;22.33;100.00
7990;BME280;4040;42.848;23.034;2022-07-04T20:00:37;94984.91;;;22.44;100.00
7990;BME280;4040;42.848;23.034;2022-07-04T20:06:26;94987.47;;;22.48;100.00
7990;BME280;4040;42.848;23.034;2022-07-04T20:12:16;94975.50;;;22.36;100.00
7990;BME280;4040;42.848;23.034;2022-07-04T20:18:05;94996.59;;;22.30;100.00
7990;BME280;4040;42.848;23.034;2022-07-04T20:23:54;95000.09;;;22.16;100.00
7990;BME280;4040;42.848;23.034;2022-07-04T20:29:45;95001.16;;;21.95;100.00
7990;BME280;4040;42.848;23.034;2022-07-04T20:35:34;94994.16;;;21.94;100.00
7990;BME280;4040;42.848;23.034;2022-07-04T20:41:23;95000.38;;;21.80;100.00
7990;BME280;4040;42.848;23.034;2022-07-04T20:47:13;95003.78;;;21.75;100.00
7990;BME280;4040;42.848;23.034;2022-07-04T20:57:24;95005.28;;;21.76;100.00
7990;BME280;4040;42.848;23.034;2022-07-04T21:03:15;95013.66;;;21.49;100.00
7990;BME280;4040;42.848;23.034;2022-07-04T21:09:04;95019.06;;;21.35;100.00
7990;BME280;4040;42.848;23.034;2022-07-04T21:14:53;95021.81;;;21.35;100.00
7990;BME280;4040;42.848;23.034;2022-07-04T21:20:43;95030.31;;;21.13;100.00
7990;BME280;4040;42.848;23.034;2022-07-04T21:26:32;95013.69;;;20.75;100.00
7990;BME280;4040;42.848;23.034;2022-07-04T21:32:21;95035.25;;;20.91;100.00
7990;BME280;4040;42.848;23.034;2022-07-04T21:38:11;95036.09;;;21.06;100.00
7990;BME280;4040;42.848;23.034;2022-07-04T21:43:59;94940.41;;;20.20;100.00
7990;BME280;4040;42.848;23.034;2022-07-04T21:49:48;95051.75;;;20.56;100.00
7990;BME280;4040;42.848;23.034;2022-07-04T22:00:01;95069.09;;;20.35;100.00
7990;BME280;4040;42.848;23.034;2022-07-04T22:08:38;95069.41;;;20.10;100.00
7990;BME280;4040;42.848;23.034;2022-07-04T22:14:27;95083.69;;;20.05;100.00
7990;BME280;4040;42.848;23.034;2022-07-04T22:20:35;95074.88;;;20.10;100.00
7990;BME280;4040;42.848;23.034;2022-07-04T22:26:25;95077.16;;;20.11;100.00
7990;BME280;4040;42.848;23.034;2022-07-04T22:32:14;95087.31;;;20.02;100.00
7990;BME280;4040;42.848;23.034;2022-07-04T22:38:02;95096.66;;;19.74;100.00
7990;BME280;4040;42.848;23.034;2022-07-04T22:43:53;95107.59;;;19.25;100.00
7990;BME280;4040;42.848;23.034;2022-07-04T22:49:41;95112.47;;;19.00;100.00
7990;BME280;4040;42.848;23.034;2022-07-04T22:55:30;95111.19;;;18.83;100.00
7990;BME280;4040;42.848;23.034;2022-07-04T23:01:21;95111.56;;;18.51;100.00
7990;BME280;4040;42.848;23.034;2022-07-04T23:07:10;95131.00;;;18.53;100.00
7990;BME280;4040;42.848;23.034;2022-07-04T23:12:58;95127.91;;;18.51;100.00
7990;BME280;4040;42.848;23.034;2022-07-04T23:18:49;95137.56;;;18.86;100.00
7990;BME280;4040;42.848;23.034;2022-07-04T23:24:38;95122.47;;;18.94;100.00
7990;BME280;4040;42.848;23.034;2022-07-04T23:30:27;95124.41;;;18.63;100.00
7990;BME280;4040;42.848;23.034;2022-07-04T23:36:17;95109.00;;;18.78;100.00
7990;BME280;4040;42.848;23.034;2022-07-04T23:42:06;95113.72;;;18.56;100.00
7990;BME280;4040;42.848;23.034;2022-07-04T23:47:55;95102.69;;;18.59;100.00
7990;BME280;4040;42.848;23.034;2022-07-04T23:53:45;95107.50;;;18.34;100.00
7990;BME280;4040;42.848;23.034;2022-07-04T23:59:34;95107.81;;;18.02;100.00
